Time;durP1;ratioP1;P1;durP2;ratioP2;P2;SDS_P1;SDS_P2;PMS_P1;PMS_P2;Temp;Humidity;BMP_temperature;BMP_pressure;BME280_temperature;BME280_humidity;BME280_pressure;Samples;Min_cycle;Max_cycle;Signal;HPM_P1;HPM_P2
2023/10/03 00:00:58;;;;;;;6.73;4.73;;;;;;;10.08;100.00;101073.25;4993690;28;20046;-67
2023/10/03 00:03:24;;;;;;;7.60;4.20;;;;;;;10.04;100.00;101053.25;4993293;28;20045;-67
2023/10/03 00:05:51;;;;;;;7.37;3.83;;;;;;;10.20;100.00;101071.22;4996884;28;20084;-68
2023/10/03 00:08:18;;;;;;;11.40;6.20;;;;;;;10.15;100.00;101042.41;4996576;28;20049;-65
2023/10/03 00:10:45;;;;;;;9.37;4.50;;;;;;;10.21;100.00;101047.16;4998812;28;20367;-65
2023/10/03 00:13:12;;;;;;;8.30;4.80;;;;;;;10.20;100.00;101047.28;4994113;28;20369;-66
2023/10/03 00:15:44;;;;;;;8.07;4.13;;;;;;;10.33;100.00;101065.53;4995573;28;20042;-68
2023/10/03 00:18:14;;;;;;;7.73;5.10;;;;;;;10.29;100.00;101043.72;4995440;28;20030;-67
2023/10/03 00:20:40;;;;;;;8.13;4.70;;;;;;;10.37;100.00;101056.25;4996179;28;20354;-68
2023/10/03 00:23:06;;;;;;;9.80;5.17;;;;;;;10.29;100.00;101025.06;4995091;28;20026;-67
2023/10/03 00:25:34;;;;;;;7.97;4.60;;;;;;;10.14;100.00;100992.00;4995397;28;20536;-66
2023/10/03 00:28:01;;;;;;;8.23;4.40;;;;;;;10.40;100.00;101029.31;4994366;28;20426;-68
2023/10/03 00:30:28;;;;;;;11.57;5.13;;;;;;;10.18;100.00;100977.38;4991592;28;20089;-68
2023/10/03 00:33:04;;;;;;;10.23;5.43;;;;;;;10.27;100.00;100986.28;4992735;28;20477;-68
2023/10/03 00:35:30;;;;;;;8.60;4.93;;;;;;;10.34;100.00;100982.00;4991453;28;20081;-69
2023/10/03 00:37:56;;;;;;;8.07;5.00;;;;;;;10.53;100.00;101000.47;4994401;28;20022;-67
2023/10/03 00:42:59;;;;;;;12.35;5.05;;;;;;;10.66;100.00;100992.88;4993165;28;20034;-70
2023/10/03 00:45:26;;;;;;;10.20;4.90;;;;;;;10.66;100.00;100973.38;4992964;28;20110;-70
2023/10/03 00:47:54;;;;;;;8.20;4.50;;;;;;;10.61;100.00;100965.03;4991199;28;20042;-68
2023/10/03 00:50:23;;;;;;;9.50;4.87;;;;;;;10.71;100.00;100969.28;4992538;28;20280;-70
2023/10/03 00:52:55;;;;;;;15.20;5.20;;;;;;;10.69;100.00;100955.25;4992517;28;20027;-68
2023/10/03 00:55:26;;;;;;;9.73;4.70;;;;;;;10.79;100.00;100973.81;4992648;28;20038;-69
2023/10/03 01:00:43;;;;;;;6.47;4.60;;;;;;;10.81;100.00;100954.00;4993804;28;20026;-69
2023/10/03 01:03:30;;;;;;;10.97;4.60;;;;;;;10.83;100.00;100952.00;4991896;28;20503;-68
2023/10/03 01:05:58;;;;;;;11.70;6.00;;;;;;;10.66;100.00;100923.63;4992690;28;20073;-69
2023/10/03 01:08:25;;;;;;;6.37;3.80;;;;;;;10.85;100.00;100943.88;4992355;28;20113;-67
2023/10/03 01:10:58;;;;;;;10.27;4.30;;;;;;;10.84;100.00;100940.38;4992705;28;20142;-69
2023/10/03 01:13:24;;;;;;;8.53;4.23;;;;;;;10.75;100.00;100920.03;4992517;28;20018;-71
2023/10/03 01:15:52;;;;;;;9.07;4.70;;;;;;;10.91;100.00;100950.38;4991582;28;20026;-66
2023/10/03 01:18:20;;;;;;;7.00;3.97;;;;;;;10.92;100.00;100938.72;4992489;28;20540;-68
2023/10/03 01:20:55;;;;;;;10.20;4.15;;;;;;;10.94;100.00;100923.41;4991135;28;20039;-69
2023/10/03 01:23:21;;;;;;;9.17;4.73;;;;;;;10.71;100.00;100896.53;4992196;28;20054;-69
2023/10/03 01:25:51;;;;;;;6.97;4.47;;;;;;;10.79;100.00;100918.69;4993172;28;20081;-66
2023/10/03 01:28:16;;;;;;;6.70;4.10;;;;;;;10.68;100.00;100892.31;4994183;28;20046;-65
2023/10/03 01:30:42;;;;;;;12.30;6.23;;;;;;;10.83;100.00;100917.38;4991805;28;20027;-66
2023/10/03 01:33:09;;;;;;;7.93;5.33;;;;;;;10.78;100.00;100901.03;4996350;28;20030;-66
2023/10/03 01:35:35;;;;;;;8.83;5.23;;;;;;;10.61;100.00;100871.81;4994803;28;20038;-67
2023/10/03 01:38:01;;;;;;;8.60;4.93;;;;;;;10.66;100.00;100885.50;4998122;28;20347;-66
2023/10/03 01:40:27;;;;;;;8.73;4.53;;;;;;;10.61;100.00;100859.34;4992445;28;20062;-69
2023/10/03 01:42:53;;;;;;;11.73;6.70;;;;;;;10.77;100.00;100883.41;4991762;28;20042;-66
2023/10/03 01:45:25;;;;;;;10.23;5.33;;;;;;;10.70;100.00;100854.91;4992212;28;20516;-68
2023/10/03 01:47:51;;;;;;;9.57;4.40;;;;;;;10.69;100.00;100854.03;4996501;28;20087;-67
2023/10/03 01:50:19;;;;;;;8.87;5.40;;;;;;;10.63;100.00;100845.88;4993984;28;20049;-67
2023/10/03 01:52:46;;;;;;;8.50;4.97;;;;;;;10.68;100.00;100841.72;4993424;28;20031;-66
2023/10/03 01:55:13;;;;;;;7.97;5.53;;;;;;;10.61;100.00;100843.38;4994102;28;20030;-66
2023/10/03 01:57:41;;;;;;;9.40;4.77;;;;;;;10.71;100.00;100857.41;4992629;28;20127;-68
2023/10/03 02:02:44;;;;;;;9.87;5.40;;;;;;;10.69;100.00;100827.41;4991986;28;20059;-66
2023/10/03 02:05:12;;;;;;;8.97;5.67;;;;;;;10.64;100.00;100819.06;4994484;28;20026;-66
2023/10/03 02:07:38;;;;;;;8.50;4.40;;;;;;;10.48;100.00;100790.56;4995405;28;20038;-67
2023/10/03 02:10:04;;;;;;;8.80;5.30;;;;;;;10.63;100.00;100805.91;4995462;28;20036;-67
2023/10/03 02:12:30;;;;;;;9.10;4.53;;;;;;;10.55;100.00;100799.56;4995280;28;20477;-71
2023/10/03 02:14:56;;;;;;;7.60;5.07;;;;;;;10.63;100.00;100812.06;4995604;28;20039;-68
2023/10/03 02:17:21;;;;;;;10.37;5.53;;;;;;;10.68;100.00;100814.25;4995362;28;20037;-70
2023/10/03 02:19:48;;;;;;;9.97;5.20;;;;;;;10.68;100.00;100803.59;4995255;28;20034;-69
2023/10/03 02:22:14;;;;;;;6.80;4.77;;;;;;;10.68;100.00;100793.78;4995344;28;20065;-69
2023/10/03 02:24:44;;;;;;;8.23;5.57;;;;;;;10.73;100.00;100794.16;4997583;28;20058;-67
2023/10/03 02:27:11;;;;;;;8.33;4.73;;;;;;;10.60;100.00;100767.13;4996639;28;20386;-70
2023/10/03 02:29:38;;;;;;;7.87;4.17;;;;;;;10.85;100.00;100792.84;4994989;28;20026;-67
2023/10/03 02:32:05;;;;;;;10.17;4.60;;;;;;;10.89;100.00;100805.81;4994757;28;20062;-68
2023/10/03 02:34:34;;;;;;;9.73;4.57;;;;;;;10.77;100.00;100776.84;4995425;28;20038;-66
2023/10/03 02:36:59;;;;;;;;;;;;;;;10.92;100.00;100787.66;4995246;28;20057;-66
2023/10/03 02:39:30;;;;;;;12.30;5.30;;;;;;;10.81;100.00;100772.84;4994854;28;19910;-68
2023/10/03 02:41:56;;;;;;;10.93;5.07;;;;;;;10.67;100.00;100746.84;4995035;28;20054;-66
2023/10/03 02:44:23;;;;;;;8.77;4.97;;;;;;;10.70;100.00;100754.53;4994434;28;20065;-67
2023/10/03 02:46:48;;;;;;;9.27;4.63;;;;;;;10.78;100.00;100761.69;4996120;28;20023;-68
2023/10/03 02:49:14;;;;;;;9.37;4.90;;;;;;;10.84;100.00;100775.19;4994310;28;20077;-69
2023/10/03 02:51:41;;;;;;;9.50;4.73;;;;;;;10.88;100.00;100774.84;4994835;28;20442;-67
2023/10/03 02:54:06;;;;;;;17.03;6.53;;;;;;;10.50;100.00;100699.88;4994948;28;20066;-70
2023/10/03 02:56:32;;;;;;;10.07;4.50;;;;;;;10.82;100.00;100733.72;4994378;28;20408;-69
2023/10/03 02:58:57;;;;;;;10.47;4.57;;;;;;;10.79;100.00;100726.06;4994039;28;20065;-68
2023/10/03 03:01:23;;;;;;;9.43;4.77;;;;;;;10.85;100.00;100726.22;4993114;28;20149;-65
2023/10/03 03:03:49;;;;;;;10.77;6.17;;;;;;;10.86;100.00;100722.56;4994803;28;20080;-67
2023/10/03 03:06:15;;;;;;;8.60;4.40;;;;;;;10.82;100.00;100715.06;4995034;28;20037;-70
2023/10/03 03:08:45;;;;;;;9.50;4.30;;;;;;;10.90;100.00;100723.06;4997532;28;20034;-68
2023/10/03 03:11:11;;;;;;;9.07;4.23;;;;;;;10.57;100.00;100666.25;4997373;28;20145;-69
2023/10/03 03:13:37;;;;;;;10.03;5.37;;;;;;;10.94;100.00;100718.22;4997564;28;20038;-66
2023/10/03 03:16:06;;;;;;;10.07;4.43;;;;;;;10.84;100.00;100700.59;4993233;28;20022;-68
2023/10/03 03:18:39;;;;;;;8.37;4.97;;;;;;;10.85;100.00;100694.25;4993886;28;20355;-64
2023/10/03 03:21:08;;;;;;;8.43;4.63;;;;;;;10.82;100.00;100683.94;4994226;28;20363;-67
2023/10/03 03:23:39;;;;;;;8.03;4.23;;;;;;;10.86;100.00;100690.59;4993861;28;20034;-65
2023/10/03 03:26:57;;;;;;;9.17;4.47;;;;;;;10.94;100.00;100694.25;4994197;28;20070;-66
2023/10/03 03:28:55;;;;;;;7.90;4.60;;;;;;;10.90;100.00;100683.09;4988490;28;20034;-69
2023/10/03 03:31:22;;;;;;;11.07;5.63;;;;;;;10.88;100.00;100678.94;4993776;28;20112;-68
2023/10/03 03:33:50;;;;;;;7.40;4.87;;;;;;;10.89;100.00;100678.75;4993855;28;20030;-66
2023/10/03 03:36:18;;;;;;;10.15;5.35;;;;;;;10.96;100.00;100686.91;4994323;28;20414;-68
2023/10/03 03:38:45;;;;;;;7.17;4.70;;;;;;;10.97;100.00;100684.09;4993648;28;20034;-70
2023/10/03 03:41:12;;;;;;;9.07;4.87;;;;;;;10.95;100.00;100682.59;4993810;28;20493;-68
2023/10/03 03:43:38;;;;;;;7.73;4.37;;;;;;;10.89;100.00;100677.94;4994073;28;20109;-67
2023/10/03 03:46:04;;;;;;;10.60;5.40;;;;;;;10.78;100.00;100660.47;4993544;28;20034;-70
2023/10/03 03:48:34;;;;;;;7.80;4.23;;;;;;;10.94;100.00;100675.59;4993399;28;20018;-67
2023/10/03 03:51:00;;;;;;;7.87;4.83;;;;;;;10.93;100.00;100668.59;4992257;28;20399;-65
2023/10/03 03:53:26;;;;;;;11.50;5.00;;;;;;;10.82;100.00;100641.31;4993927;28;20042;-67
2023/10/03 03:55:52;;;;;;;11.67;6.30;;;;;;;10.69;100.00;100606.34;4994029;28;20073;-68
2023/10/03 03:58:20;;;;;;;9.33;5.23;;;;;;;10.92;100.00;100659.78;4996714;28;20038;-67
2023/10/03 04:00:51;;;;;;;9.38;4.75;;;;;;;10.88;100.00;100642.47;5001451;28;20046;-68
2023/10/03 04:03:18;;;;;;;11.30;5.60;;;;;;;9.88;100.00;100481.19;4998146;28;20030;-69
2023/10/03 04:05:49;;;;;;;8.07;5.37;;;;;;;10.85;100.00;100622.31;4995075;28;20030;-68
2023/10/03 04:08:15;;;;;;;12.60;6.20;;;;;;;10.80;100.00;100606.00;4992474;28;20026;-69
2023/10/03 04:10:44;;;;;;;12.50;6.50;;;;;;;10.92;100.00;100632.31;4991816;28;20033;-70
2023/10/03 04:13:10;;;;;;;;;;;;;;;10.94;100.00;100622.31;4993623;28;20041;-70
2023/10/03 04:15:44;;;;;;;11.50;7.10;;;;;;;10.90;100.00;100615.66;4991879;28;20304;-70
2023/10/03 04:18:12;;;;;;;10.63;6.37;;;;;;;10.77;100.00;100601.03;4992981;28;20034;-68
2023/10/03 04:20:40;;;;;;;12.00;6.47;;;;;;;10.78;100.00;100596.53;4993196;28;20071;-66
2023/10/03 04:23:08;;;;;;;12.15;6.13;;;;;;;10.82;100.00;100609.34;4995464;28;20030;-65
2023/10/03 04:25:40;;;;;;;12.40;5.90;;;;;;;10.03;100.00;100484.03;4996290;28;20050;-72
2023/10/03 04:28:07;;;;;;;12.80;6.93;;;;;;;10.86;100.00;100610.66;4995245;28;20039;-70
2023/10/03 04:30:33;;;;;;;9.80;6.53;;;;;;;10.51;100.00;100560.41;4995430;28;20413;-70
2023/10/03 04:32:58;;;;;;;12.30;6.20;;;;;;;10.87;100.00;100611.50;4996364;28;20578;-68
2023/10/03 04:35:25;;;;;;;9.00;5.90;;;;;;;10.82;100.00;100604.00;4993532;28;20971;-69
2023/10/03 04:37:52;;;;;;;10.17;6.03;;;;;;;10.85;100.00;100601.00;4992702;28;20033;-67
2023/10/03 04:40:22;;;;;;;8.57;5.90;;;;;;;10.84;100.00;100604.69;4992592;28;20034;-70
2023/10/03 04:42:53;;;;;;;9.87;6.53;;;;;;;10.91;100.00;100602.16;4992400;28;20034;-68
2023/10/03 04:45:19;;;;;;;11.37;6.10;;;;;;;10.90;100.00;100607.66;4992042;28;20405;-69
2023/10/03 04:47:48;;;;;;;10.87;6.23;;;;;;;10.88;100.00;100594.50;4992281;28;20034;-68
2023/10/03 04:50:19;;;;;;;9.13;5.90;;;;;;;10.78;100.00;100581.38;4992528;28;20485;-64
2023/10/03 04:52:48;;;;;;;13.27;6.10;;;;;;;10.82;100.00;100593.34;4992450;28;20116;-64
2023/10/03 04:55:16;;;;;;;12.80;6.33;;;;;;;10.89;100.00;100593.50;4987784;28;20142;-66
2023/10/03 04:57:46;;;;;;;19.57;8.57;;;;;;;10.88;100.00;100586.50;4982402;28;20026;-66
2023/10/03 05:00:15;;;;;;;10.70;6.30;;;;;;;10.95;100.00;100592.81;4984110;28;20042;-65
2023/10/03 05:02:46;;;;;;;11.70;6.57;;;;;;;10.99;100.00;100588.03;4981926;28;20030;-65
2023/10/03 05:05:23;;;;;;;9.27;6.53;;;;;;;10.97;100.00;100569.50;4979946;28;20474;-67
2023/10/03 05:07:54;;;;;;;11.57;6.10;;;;;;;10.93;100.00;100568.19;4980035;28;20045;-68
2023/10/03 05:10:20;;;;;;;10.60;6.23;;;;;;;11.00;100.00;100568.38;4981755;28;20027;-69
2023/10/03 05:12:47;;;;;;;7.30;6.33;;;;;;;10.81;100.00;100537.59;4983435;28;20034;-64
2023/10/03 05:15:17;;;;;;;10.67;5.93;;;;;;;11.01;100.00;100575.34;4983262;28;20030;-67
2023/10/03 05:17:44;;;;;;;10.47;6.03;;;;;;;10.87;100.00;100558.22;4983934;28;20018;-66
2023/10/03 05:20:13;;;;;;;9.13;5.60;;;;;;;10.95;100.00;100560.03;4979943;28;20046;-64
2023/10/03 05:22:40;;;;;;;;;;;;;;;11.11;100.00;100586.66;4986069;28;20455;-66
2023/10/03 05:25:11;;;;;;;9.03;5.63;;;;;;;11.06;100.00;100578.34;4984914;28;19922;-66
2023/10/03 05:27:43;;;;;;;10.23;6.13;;;;;;;10.93;100.00;100559.34;4975535;28;20034;-66
2023/10/03 05:30:10;;;;;;;6.40;5.10;;;;;;;10.69;100.00;100512.28;4972530;28;20065;-66
2023/10/03 05:32:37;;;;;;;7.10;5.27;;;;;;;10.46;100.00;100480.22;4972308;28;20074;-69
2023/10/03 05:35:08;;;;;;;9.83;6.00;;;;;;;11.02;100.00;100577.03;4972276;28;20730;-67
2023/10/03 05:37:35;;;;;;;11.37;6.47;;;;;;;10.98;100.00;100570.34;4972362;28;20117;-68
2023/10/03 05:40:20;;;;;;;8.03;5.40;;;;;;;11.03;100.00;100576.00;4976227;28;20374;-68
2023/10/03 05:42:47;;;;;;;7.70;5.63;;;;;;;11.00;100.00;100552.38;4976460;28;20489;-68
2023/10/03 05:45:15;;;;;;;12.27;5.90;;;;;;;11.03;100.00;100546.69;4976253;28;20037;-67
2023/10/03 05:47:44;;;;;;;6.80;5.35;;;;;;;11.14;100.00;100555.16;4976317;28;20042;-69
2023/10/03 05:50:10;;;;;;;8.32;5.53;;;;;;;11.07;100.00;100540.84;4976042;28;20050;-67
2023/10/03 05:52:36;;;;;;;7.73;5.43;;;;;;;11.17;100.00;100554.81;4976414;28;20483;-68
2023/10/03 05:55:02;;;;;;;8.60;5.20;;;;;;;11.18;100.00;100550.31;4976175;28;20119;-70
2023/10/03 05:57:29;;;;;;;7.17;4.90;;;;;;;10.98;100.00;100511.72;4976425;28;20031;-68
2023/10/03 05:59:55;;;;;;;7.33;4.00;;;;;;;11.18;100.00;100540.47;4976108;28;20077;-67
2023/10/03 06:02:21;;;;;;;7.00;4.10;;;;;;;11.21;100.00;100533.97;4976107;28;20451;-70
2023/10/03 06:04:47;;;;;;;8.03;5.87;;;;;;;11.27;100.00;100533.28;4976210;28;20033;-70
2023/10/03 06:07:13;;;;;;;9.90;5.60;;;;;;;11.17;100.00;100501.50;4974851;28;20023;-70
2023/10/03 06:09:38;;;;;;;6.73;5.07;;;;;;;11.30;100.00;100527.63;4975835;28;20118;-69
2023/10/03 06:12:04;;;;;;;6.60;4.37;;;;;;;11.36;100.00;100524.25;4975853;28;20053;-70
2023/10/03 06:14:30;;;;;;;8.23;4.70;;;;;;;11.26;100.00;100496.13;4976104;28;20050;-70
2023/10/03 06:16:56;;;;;;;6.20;4.43;;;;;;;11.27;100.00;100506.63;4975761;28;20033;-69
2023/10/03 06:19:21;;;;;;;5.57;4.70;;;;;;;11.36;100.00;100510.94;4975624;28;20070;-69
2023/10/03 06:21:47;;;;;;;9.60;5.53;;;;;;;11.46;100.00;100519.53;4975720;28;20089;-67
2023/10/03 06:24:14;;;;;;;6.80;4.63;;;;;;;11.43;100.00;100509.22;4975919;28;20113;-67
2023/10/03 06:26:44;;;;;;;4.73;4.00;;;;;;;11.56;100.00;100511.31;4974752;28;20192;-66
2023/10/03 06:29:10;;;;;;;6.07;4.30;;;;;;;11.58;100.00;100509.31;4976552;28;20058;-67
2023/10/03 06:31:36;;;;;;;6.43;4.10;;;;;;;11.60;100.00;100509.97;4976731;28;20430;-66
2023/10/03 06:34:02;;;;;;;6.53;4.10;;;;;;;11.65;100.00;100502.28;4976452;28;20505;-66
2023/10/03 06:36:28;;;;;;;7.03;4.20;;;;;;;11.41;100.00;100468.56;4975476;28;20034;-68
2023/10/03 06:38:54;;;;;;;11.53;4.60;;;;;;;11.65;100.00;100493.44;4975214;28;20045;-68
2023/10/03 06:41:19;;;;;;;6.77;4.93;;;;;;;11.67;100.00;100496.75;4975415;28;20019;-67
2023/10/03 06:43:45;;;;;;;5.83;4.70;;;;;;;11.61;100.00;100473.47;4975780;28;20101;-71
2023/10/03 06:46:11;;;;;;;5.03;3.63;;;;;;;11.75;100.00;100473.53;4975209;28;20031;-70
2023/10/03 06:48:36;;;;;;;6.93;4.30;;;;;;;11.90;100.00;100492.31;4975635;28;20056;-69
2023/10/03 06:51:04;;;;;;;8.47;4.60;;;;;;;11.88;100.00;100494.31;4973317;28;20485;-69
2023/10/03 06:53:30;;;;;;;6.43;4.40;;;;;;;11.83;100.00;100470.00;4973866;28;20026;-70
2023/10/03 06:55:57;;;;;;;6.57;4.50;;;;;;;11.83;100.00;100464.66;4973809;28;20043;-68
2023/10/03 06:58:24;;;;;;;5.20;3.50;;;;;;;12.04;100.00;100494.19;4975062;28;20105;-68
2023/10/03 07:00:56;;;;;;;9.87;3.90;;;;;;;12.00;100.00;100495.56;4974935;28;20106;-71
2023/10/03 07:03:22;;;;;;;4.30;3.87;;;;;;;12.11;100.00;100486.28;4974911;28;20506;-69
2023/10/03 07:05:48;;;;;;;6.57;5.20;;;;;;;12.22;100.00;100496.56;4975101;28;20039;-69
2023/10/03 07:08:14;;;;;;;8.47;4.33;;;;;;;12.29;100.00;100504.69;4973539;28;20037;-68
2023/10/03 07:10:42;;;;;;;5.47;4.70;;;;;;;12.13;100.00;100468.25;4974838;28;20455;-68
2023/10/03 07:13:12;;;;;;;5.30;4.40;;;;;;;11.96;100.00;100432.06;4973544;28;20042;-68
2023/10/03 07:15:39;;;;;;;7.37;4.17;;;;;;;11.85;100.00;100408.44;4974902;28;20042;-69
2023/10/03 07:18:05;;;;;;;5.87;4.23;;;;;;;12.35;100.00;100480.75;4957613;28;20027;-69
2023/10/03 07:20:31;;;;;;;5.47;4.20;;;;;;;12.41;100.00;100481.84;4974764;28;20109;-68
2023/10/03 07:22:57;;;;;;;6.33;4.03;;;;;;;12.52;100.00;100486.78;4974767;28;20035;-70
2023/10/03 07:25:22;;;;;;;5.00;3.50;;;;;;;12.64;100.00;100490.66;4974466;28;20050;-68
2023/10/03 07:27:51;;;;;;;5.63;4.20;;;;;;;12.39;100.00;100439.31;4974691;28;20042;-68
2023/10/03 07:30:17;;;;;;;3.90;3.47;;;;;;;12.79;100.00;100492.53;4974618;28;20042;-68
2023/10/03 07:32:42;;;;;;;6.70;3.90;;;;;;;12.78;100.00;100497.03;4974260;28;20039;-68
2023/10/03 07:35:11;;;;;;;4.57;3.80;;;;;;;12.71;100.00;100496.91;4972884;28;20116;-68
2023/10/03 07:37:39;;;;;;;4.05;3.63;;;;;;;12.70;100.00;100492.59;4974371;28;20035;-69
2023/10/03 07:40:06;;;;;;;4.43;3.65;;;;;;;12.59;100.00;100489.53;4974185;28;20045;-68
2023/10/03 07:42:32;;;;;;;5.97;3.45;;;;;;;12.63;100.00;100494.34;4973951;28;20034;-69
2023/10/03 07:44:58;;;;;;;7.13;3.80;;;;;;;12.58;100.00;100488.72;4974375;28;20038;-67
2023/10/03 07:47:23;;;;;;;7.53;3.37;;;;;;;12.61;100.00;100495.53;4974712;28;20030;-69
2023/10/03 07:49:51;;;;;;;6.37;3.87;;;;;;;12.61;100.00;100476.84;4974589;28;20031;-67
2023/10/03 07:52:19;;;;;;;4.90;3.73;;;;;;;12.76;100.00;100501.75;4974261;28;20080;-70
2023/10/03 07:54:47;;;;;;;;;;;;;;;12.83;100.00;100502.66;4974391;28;20474;-67
2023/10/03 07:57:13;;;;;;;5.17;4.33;;;;;;;12.69;100.00;100482.91;4972668;28;19910;-66
2023/10/03 07:59:39;;;;;;;5.57;4.00;;;;;;;12.91;100.00;100502.56;4973759;28;20062;-68
2023/10/03 08:02:10;;;;;;;5.93;4.70;;;;;;;13.00;100.00;100505.97;4973198;28;20030;-67
2023/10/03 08:04:37;;;;;;;5.77;4.70;;;;;;;13.03;100.00;100497.59;4973578;28;20138;-67
2023/10/03 08:07:07;;;;;;;7.37;4.60;;;;;;;13.19;100.00;100502.78;4973709;28;20062;-67
2023/10/03 08:09:33;;;;;;;8.93;5.70;;;;;;;13.33;100.00;100506.47;4973644;28;20465;-64
2023/10/03 08:11:59;;;;;;;6.40;4.70;;;;;;;13.35;100.00;100499.09;4972431;28;20368;-68
2023/10/03 08:14:25;;;;;;;7.73;4.67;;;;;;;13.53;100.00;100515.53;4973868;28;20041;-66
2023/10/03 08:16:56;;;;;;;5.63;4.37;;;;;;;13.54;100.00;100498.47;4973692;28;20038;-65
2023/10/03 08:19:22;;;;;;;5.23;4.40;;;;;;;13.70;100.00;100507.31;4973761;28;20031;-65
2023/10/03 08:21:48;;;;;;;5.60;4.30;;;;;;;13.67;100.00;100487.09;4973517;28;20031;-67
2023/10/03 08:24:18;;;;;;;6.10;5.00;;;;;;;13.77;100.00;100498.31;4973364;28;20058;-67
2023/10/03 08:26:50;;;;;;;5.80;4.43;;;;;;;13.75;100.00;100484.28;4973700;28;20483;-66
2023/10/03 08:29:23;;;;;;;5.03;4.40;;;;;;;13.90;100.00;100486.94;4972366;28;20089;-64
2023/10/03 08:31:57;;;;;;;5.50;4.30;;;;;;;14.01;100.00;100478.38;4973403;28;20061;-67
2023/10/03 08:34:27;;;;;;;6.50;4.57;;;;;;;14.05;100.00;100466.25;4973497;28;20493;-65
2023/10/03 08:36:54;;;;;;;6.60;4.97;;;;;;;13.40;100.00;100362.09;4973440;28;20034;-66
2023/10/03 08:39:22;;;;;;;4.97;4.10;;;;;;;14.18;100.00;100481.63;4973372;28;20062;-66
2023/10/03 08:42:11;;;;;;;7.90;4.53;;;;;;;14.38;100.00;100474.56;4974116;28;20180;-65
2023/10/03 08:44:52;;;;;;;6.33;5.60;;;;;;;14.54;100.00;100487.72;4973359;28;20451;-64
2023/10/03 08:47:28;;;;;;;7.30;4.33;;;;;;;14.68;100.00;100477.09;4973190;28;20027;-70
2023/10/03 08:50:14;;;;;;;6.23;5.30;;;;;;;14.86;100.00;100469.38;4973663;28;20074;-67
2023/10/03 08:52:52;;;;;;;9.87;5.63;;;;;;;15.07;100.00;100485.38;4973287;28;20030;-69
2023/10/03 08:55:21;;;;;;;7.45;4.47;;;;;;;14.92;100.00;100452.50;4983407;28;20032;-67
2023/10/03 08:57:48;;;;;;;7.87;4.90;;;;;;;15.10;100.00;100484.97;4990766;28;20088;-68
2023/10/03 09:00:15;;;;;;;5.57;4.57;;;;;;;15.07;100.00;100461.25;4986992;28;20030;-65
2023/10/03 09:02:45;;;;;;;5.20;4.40;;;;;;;15.11;100.00;100475.09;4977181;28;20031;-65
2023/10/03 09:05:22;;;;;;;5.87;5.00;;;;;;;15.10;100.00;100468.88;4977042;28;20038;-69
2023/10/03 09:07:49;;;;;;;5.57;4.90;;;;;;;14.99;100.00;100458.72;4972956;28;20030;-65
2023/10/03 09:10:25;;;;;;;6.17;4.53;;;;;;;14.70;100.00;100413.38;4973583;28;20490;-67
2023/10/03 09:13:04;;;;;;;9.93;6.27;;;;;;;15.03;100.00;100470.69;4973822;28;20622;-66
2023/10/03 09:15:37;;;;;;;7.13;5.80;;;;;;;15.04;100.00;100448.25;4978432;28;20030;-69
2023/10/03 09:18:10;;;;;;;8.53;5.20;;;;;;;15.13;100.00;100465.81;4977724;28;20030;-67
2023/10/03 09:20:36;;;;;;;9.10;5.23;;;;;;;15.05;100.00;100460.63;4976644;28;20034;-72
2023/10/03 09:23:05;;;;;;;10.17;5.33;;;;;;;15.18;100.00;100446.44;4979083;28;20081;-71
2023/10/03 09:25:32;;;;;;;5.83;4.80;;;;;;;15.27;100.00;100437.16;4979063;28;20053;-66
2023/10/03 09:28:05;;;;;;;5.93;4.70;;;;;;;15.54;100.00;100456.88;4979578;28;20042;-69
2023/10/03 09:30:37;;;;;;;8.30;4.90;;;;;;;15.47;100.00;100447.97;4978735;28;20042;-64
2023/10/03 09:33:08;;;;;;;7.23;4.83;;;;;;;15.46;100.00;100435.59;4977860;28;20505;-65
2023/10/03 09:35:39;;;;;;;6.30;4.80;;;;;;;15.44;100.00;100443.00;4978015;28;20058;-66
2023/10/03 09:38:10;;;;;;;8.93;5.13;;;;;;;15.44;100.00;100432.28;4976586;28;20027;-68
2023/10/03 09:40:48;;;;;;;8.90;4.30;;;;;;;15.56;100.00;100452.13;4976009;28;20035;-68
2023/10/03 09:43:16;;;;;;;7.20;4.93;;;;;;;15.52;100.00;100445.50;4977397;28;20035;-66
2023/10/03 09:45:47;;;;;;;6.23;4.70;;;;;;;15.61;100.00;100454.22;4977032;28;20089;-71
2023/10/03 09:48:14;;;;;;;5.67;4.73;;;;;;;15.48;100.00;100428.16;4978665;28;20037;-67
2023/10/03 09:50:53;;;;;;;9.17;5.00;;;;;;;15.73;100.00;100455.31;4978009;28;20031;-66
2023/10/03 09:53:19;;;;;;;6.63;4.87;;;;;;;15.83;100.00;100441.47;4979054;28;20442;-67
2023/10/03 09:55:49;;;;;;;7.83;5.03;;;;;;;15.80;100.00;100432.78;4978980;28;20093;-68
2023/10/03 09:58:24;;;;;;;6.27;4.50;;;;;;;15.86;100.00;100451.78;4981129;28;20022;-67
2023/10/03 10:00:53;;;;;;;9.83;4.73;;;;;;;15.83;100.00;100447.66;4978918;28;20035;-68
2023/10/03 10:03:29;;;;;;;5.27;4.63;;;;;;;15.80;100.00;100431.97;4975491;28;20034;-66
2023/10/03 10:06:37;;;;;;;8.93;5.13;;;;;;;15.91;100.00;100449.34;4977057;28;20018;-66
2023/10/03 10:09:23;;;;;;;;;;;;;;;15.83;100.00;100441.47;4948464;28;20125;-69
2023/10/03 10:12:19;;;;;;;7.40;5.13;;;;;;;15.55;100.00;100433.53;4976707;28;19910;-68
2023/10/03 10:15:14;;;;;;;6.40;4.70;;;;;;;15.39;100.00;100434.75;4971436;28;20467;-66
2023/10/03 10:17:46;;;;;;;7.23;5.17;;;;;;;15.30;100.00;100430.56;4963358;28;20158;-68
2023/10/03 10:20:27;;;;;;;5.80;4.20;;;;;;;15.18;100.00;100422.28;4975863;28;20383;-68
2023/10/03 10:23:02;;;;;;;6.63;4.20;;;;;;;15.06;100.00;100424.72;4975905;28;20043;-69
2023/10/03 10:25:37;;;;;;;6.10;4.77;;;;;;;14.82;100.00;100396.56;4974493;28;20051;-67
2023/10/03 10:28:20;;;;;;;6.67;5.07;;;;;;;14.79;100.00;100420.25;4975885;28;20126;-67
2023/10/03 10:31:15;;;;;;;7.33;5.10;;;;;;;14.69;100.00;100454.63;4975746;28;20379;-65
2023/10/03 10:33:42;;;;;;;7.50;3.30;;;;;;;14.32;100.00;100461.97;4975435;28;20482;-68
2023/10/03 10:36:10;;;;;;;5.23;3.50;;;;;;;13.89;100.00;100464.69;4975348;28;20411;-68
2023/10/03 10:38:35;;;;;;;5.00;3.03;;;;;;;13.77;100.00;100476.06;4975628;28;20027;-67
2023/10/03 10:41:22;;;;;;;5.40;3.67;;;;;;;13.71;100.00;100485.69;4975628;28;20030;-66
2023/10/03 10:44:14;;;;;;;5.15;3.10;;;;;;;13.53;100.00;100469.22;4975341;28;20039;-71
2023/10/03 10:46:49;;;;;;;4.13;3.20;;;;;;;13.56;100.00;100471.53;4975757;28;20035;-69
2023/10/03 10:49:40;;;;;;;4.90;3.17;;;;;;;13.42;100.00;100461.69;4974009;28;20054;-68
2023/10/03 10:52:13;;;;;;;3.67;2.90;;;;;;;13.35;100.00;100463.47;4976946;28;20031;-67
2023/10/03 10:54:41;;;;;;;9.10;5.27;;;;;;;13.22;100.00;100462.28;4975398;28;20411;-69
2023/10/03 10:57:14;;;;;;;5.88;3.25;;;;;;;13.27;100.00;100475.91;4974435;28;20038;-67
2023/10/03 10:59:41;;;;;;;5.17;2.83;;;;;;;13.25;100.00;100472.59;4975729;28;20448;-69
2023/10/03 11:02:26;;;;;;;7.43;3.60;;;;;;;13.24;100.00;100472.78;4975447;28;20030;-70
2023/10/03 11:04:56;;;;;;;5.83;3.33;;;;;;;13.16;100.00;100470.19;4974243;28;20027;-66
2023/10/03 11:07:23;;;;;;;7.27;4.53;;;;;;;13.12;100.00;100460.91;4975425;28;20034;-71
2023/10/03 11:09:51;;;;;;;12.63;5.80;;;;;;;13.09;100.00;100459.44;4974370;28;20022;-69
2023/10/03 11:12:27;;;;;;;6.05;3.88;;;;;;;12.93;100.00;100443.56;4975309;28;20541;-67
2023/10/03 11:14:55;;;;;;;6.23;3.93;;;;;;;12.98;100.00;100462.56;4974792;28;20058;-69
2023/10/03 11:17:21;;;;;;;8.90;4.18;;;;;;;12.97;100.00;100479.59;4973489;28;20058;-66
2023/10/03 11:19:49;;;;;;;8.13;5.03;;;;;;;12.90;100.00;100468.84;4974757;28;20466;-68
2023/10/03 11:22:17;;;;;;;6.82;3.30;;;;;;;12.71;100.00;100462.19;4974245;28;20030;-66
2023/10/03 11:24:44;;;;;;;7.80;3.90;;;;;;;11.93;100.00;100352.34;4974551;28;20038;-68
2023/10/03 11:27:30;;;;;;;6.23;3.73;;;;;;;12.81;100.00;100493.16;4974767;28;20350;-67
2023/10/03 11:29:57;;;;;;;6.27;3.77;;;;;;;12.54;100.00;100451.88;4974261;28;20034;-67
2023/10/03 11:32:30;;;;;;;6.57;3.63;;;;;;;12.70;100.00;100468.53;4973427;28;20023;-68
2023/10/03 11:34:57;;;;;;;6.70;3.50;;;;;;;12.64;100.00;100469.28;4973254;28;20402;-67